Nashville, Tennessee
Traffic Map
Current Weather Conditions
Nashville, Tennessee
Overcast
Overcast

Feels Like: -1°
Wind Chill: -1° Ceiling: 2500
Heat Index: Visibility: 10mi
Dew Point: -2° Wind: 12mph
Humidity: 70% Direction: 330° (NNW)
Pressure: 30.37in Gusts: 0mph
Raw Report DataKBNA 300853Z 33010KT 10SM BKN025 OVC030 03/M02 A3037 RMK AO2 SLP283 T00331017 53010
Traffic Incident Summary
Active as of:
Severity:
Category:
InformationThere was an issue retrieving the traffic information for this location. Please try a different location or try again shortly.
Advertisements
Track Severe Weather on mobile